createdAt,value
2022-12-11T00:01:24.974Z,98499.38
2022-12-11T00:03:52.320Z,98504.88
2022-12-11T00:06:22.364Z,98505.56
2022-12-11T00:08:53.546Z,98517.91
2022-12-11T00:11:22.293Z,98502.59
2022-12-11T00:13:49.845Z,98505.09
2022-12-11T00:16:17.198Z,98500.97
2022-12-11T00:18:45.868Z,98496.44
2022-12-11T00:21:14.985Z,98501.56
2022-12-11T00:23:42.408Z,98502.25
2022-12-11T00:26:14.550Z,98497.09
2022-12-11T00:28:42.079Z,98491.84
2022-12-11T00:31:13.718Z,98487.50
2022-12-11T00:33:42.016Z,98497.81
2022-12-11T00:36:14.348Z,98502.03
2022-12-11T00:38:42.669Z,98502.84
2022-12-11T00:41:10.088Z,98505.94
2022-12-11T00:43:37.721Z,98504.22
2022-12-11T00:46:05.353Z,98497.56
2022-12-11T00:48:33.154Z,98505.13
2022-12-11T00:51:00.855Z,98511.97
2022-12-11T00:53:29.560Z,98514.72
2022-12-11T00:55:56.801Z,98515.75
2022-12-11T00:58:24.489Z,98520.09
2022-12-11T01:00:52.378Z,98522.63
2022-12-11T01:03:19.595Z,98521.00
2022-12-11T01:05:53.630Z,98522.63
2022-12-11T01:08:21.369Z,98524.78
2022-12-11T01:10:50.129Z,98528.00
2022-12-11T01:13:17.791Z,98530.63
2022-12-11T01:15:45.971Z,98499.50
2022-12-11T01:18:15.396Z,98499.28
2022-12-11T01:20:43.215Z,98502.28
2022-12-11T01:23:13.141Z,98507.53
2022-12-11T01:25:41.963Z,98509.59
2022-12-11T01:28:11.370Z,98509.50
2022-12-11T01:30:41.685Z,98512.22
2022-12-11T01:33:09.079Z,98513.69
2022-12-11T01:35:36.647Z,98507.75
2022-12-11T01:38:03.894Z,98500.00
2022-12-11T01:40:31.102Z,98502.38
2022-12-11T01:42:58.437Z,98510.16
2022-12-11T01:45:44.881Z,98507.28
2022-12-11T01:48:16.179Z,98494.72
2022-12-11T01:50:47.844Z,98504.53
2022-12-11T01:53:21.262Z,98515.66
2022-12-11T01:55:51.417Z,98513.59
2022-12-11T01:58:20.191Z,98526.06
2022-12-11T02:00:49.151Z,98527.31
2022-12-11T02:03:16.612Z,98523.19
2022-12-11T02:05:44.077Z,98527.31
2022-12-11T02:08:12.052Z,98530.75
2022-12-11T02:10:52.662Z,98521.03
2022-12-11T02:13:28.072Z,98518.63
2022-12-11T02:16:05.030Z,98532.34
2022-12-11T02:18:36.862Z,98535.66
2022-12-11T02:21:11.078Z,98540.94
2022-12-11T02:24:03.731Z,98547.44
2022-12-11T02:26:40.683Z,98544.25
2022-12-11T02:29:16.614Z,98551.13
2022-12-11T02:31:48.239Z,98554.34
2022-12-11T02:34:21.840Z,98561.91
2022-12-11T02:36:52.230Z,98555.91
2022-12-11T02:39:22.669Z,98565.66
2022-12-11T02:41:51.407Z,98569.78
2022-12-11T02:44:24.953Z,98557.78
2022-12-11T02:46:53.573Z,98558.47
2022-12-11T02:49:23.210Z,98562.81
2022-12-11T02:51:52.944Z,98565.69
2022-12-11T02:54:25.535Z,98570.59
2022-12-11T02:56:59.120Z,98538.09
2022-12-11T02:59:46.813Z,98579.06
2022-12-11T03:02:17.286Z,98571.06
2022-12-11T03:04:46.046Z,98586.38
2022-12-11T03:07:18.064Z,98589.81
2022-12-11T03:09:47.289Z,98592.34
2022-12-11T03:12:17.830Z,98594.50
2022-12-11T03:14:46.783Z,98588.00
2022-12-11T03:17:17.025Z,98585.69
2022-12-11T03:19:51.303Z,98595.31
2022-12-11T03:22:22.248Z,98592.59
2022-12-11T03:24:53.369Z,98599.44
2022-12-11T03:27:32.728Z,98592.78
2022-12-11T03:30:08.045Z,98613.84
2022-12-11T03:32:40.810Z,98610.88
2022-12-11T03:35:14.603Z,98610.69
2022-12-11T03:37:43.599Z,98609.72
2022-12-11T03:40:13.678Z,98615.13
2022-12-11T03:42:44.513Z,98613.41
2022-12-11T03:45:14.435Z,98622.22
2022-12-11T03:47:43.452Z,98621.97
2022-12-11T03:50:14.626Z,98617.50
2022-12-11T03:52:46.131Z,98623.50
2022-12-11T03:55:17.150Z,98618.00
2022-12-11T03:57:45.013Z,98623.03
2022-12-11T04:00:16.569Z,98593.50
2022-12-11T04:02:44.810Z,98624.16
2022-12-11T04:05:12.716Z,98628.38
2022-12-11T04:07:40.207Z,98639.16
2022-12-11T04:10:08.046Z,98637.09
2022-12-11T04:12:35.234Z,98646.16
2022-12-11T04:15:02.844Z,98645.00
2022-12-11T04:18:15.580Z,98636.66
2022-12-11T04:21:00.996Z,98648.94
2022-12-11T04:23:46.689Z,98647.53
2022-12-11T04:26:16.656Z,98643.53
2022-12-11T04:28:45.138Z,98641.59
2022-12-11T04:31:13.135Z,98658.31
2022-12-11T04:33:42.123Z,98664.72
2022-12-11T04:36:10.760Z,98670.09
2022-12-11T04:38:38.142Z,98665.41
2022-12-11T04:41:07.605Z,98667.47
2022-12-11T04:43:35.191Z,98662.53
2022-12-11T04:46:03.433Z,98658.09
2022-12-11T04:48:30.664Z,98654.88
2022-12-11T04:51:02.493Z,98664.03
2022-12-11T04:53:30.139Z,98659.09
2022-12-11T04:55:57.380Z,98662.88
2022-12-11T04:58:25.796Z,98654.97
2022-12-11T05:00:53.731Z,98647.06
2022-12-11T05:03:21.119Z,98642.03
2022-12-11T05:05:49.498Z,98629.22
2022-12-11T05:08:19.216Z,98641.81
2022-12-11T05:10:55.540Z,98645.13
2022-12-11T05:13:22.849Z,98656.22
2022-12-11T05:15:50.307Z,98666.97
2022-12-11T05:18:17.677Z,98668.16
2022-12-11T05:20:45.198Z,98675.47
2022-12-11T05:23:12.407Z,98674.22
2022-12-11T05:25:41.048Z,98677.56
2022-12-11T05:28:08.590Z,98680.53
2022-12-11T05:30:35.809Z,98683.72
2022-12-11T05:33:02.999Z,98690.97
2022-12-11T05:35:30.287Z,98704.38
2022-12-11T05:37:58.399Z,98708.00
2022-12-11T05:40:25.719Z,98719.03
2022-12-11T05:42:55.767Z,98730.34
2022-12-11T05:45:22.975Z,98727.22
2022-12-11T05:47:50.318Z,98730.22
2022-12-11T05:50:17.870Z,98747.38
2022-12-11T05:52:45.139Z,98752.16
2022-12-11T05:55:12.625Z,98744.50
2022-12-11T05:57:39.978Z,98743.69
2022-12-11T06:00:10.476Z,98746.91
2022-12-11T06:02:37.851Z,98765.00
2022-12-11T06:05:05.843Z,98771.53
2022-12-11T06:07:33.125Z,98773.94
2022-12-11T06:10:00.376Z,98786.75
2022-12-11T06:12:28.483Z,98793.16
2022-12-11T06:14:56.199Z,98802.84
2022-12-11T06:17:24.821Z,98801.56
2022-12-11T06:19:52.086Z,98800.44
2022-12-11T06:22:19.537Z,98804.34
2022-12-11T06:24:46.769Z,98807.22
2022-12-11T06:27:14.139Z,98802.66
2022-12-11T06:29:41.573Z,98803.47
2022-12-11T06:32:08.866Z,98813.53
2022-12-11T06:34:37.642Z,98810.81
2022-12-11T06:37:04.907Z,98802.09
2022-12-11T06:39:32.447Z,98802.50
2022-12-11T06:41:59.647Z,98802.03
2022-12-11T06:44:27.235Z,98805.09
2022-12-11T06:46:54.559Z,98803.50
2022-12-11T06:49:22.011Z,98795.41
2022-12-11T06:51:50.732Z,98804.94
2022-12-11T06:54:17.918Z,98817.63
2022-12-11T06:56:45.161Z,98809.59
2022-12-11T06:59:12.914Z,98808.78
2022-12-11T07:01:41.098Z,98807.31
2022-12-11T07:04:09.694Z,98818.69
2022-12-11T07:06:36.974Z,98823.31
2022-12-11T07:09:06.686Z,98821.97
2022-12-11T07:11:33.958Z,98833.22
2022-12-11T07:14:01.356Z,98843.34
2022-12-11T07:16:28.647Z,98846.66
2022-12-11T07:18:56.222Z,98834.22
2022-12-11T07:21:23.503Z,98819.00
2022-12-11T07:23:50.890Z,98825.38
2022-12-11T07:26:21.761Z,98826.41
2022-12-11T07:28:49.969Z,98840.38
2022-12-11T07:31:19.564Z,98805.31
2022-12-11T07:33:47.372Z,98845.56
2022-12-11T07:36:16.402Z,98847.94
2022-12-11T07:38:43.660Z,98861.19
2022-12-11T07:41:13.817Z,98856.91
2022-12-11T07:43:43.040Z,98838.81
2022-12-11T07:46:13.302Z,98827.22
2022-12-11T07:48:42.368Z,98820.69
2022-12-11T07:51:11.157Z,98821.22
2022-12-11T07:53:39.358Z,98847.53
2022-12-11T07:56:07.650Z,98866.22
2022-12-11T07:58:35.083Z,98863.91
2022-12-11T08:01:03.821Z,98860.81
2022-12-11T08:03:31.165Z,98871.88
2022-12-11T08:05:58.438Z,98867.06
2022-12-11T08:08:25.678Z,98858.72
2022-12-11T08:10:53.036Z,98861.81
2022-12-11T08:13:20.426Z,98854.25
2022-12-11T08:15:49.118Z,98850.84
2022-12-11T08:18:17.823Z,98868.47
2022-12-11T08:20:45.134Z,98872.09
2022-12-11T08:23:12.475Z,98875.59
2022-12-11T08:25:39.867Z,98886.72
2022-12-11T08:28:07.149Z,98895.38
2022-12-11T08:30:34.790Z,98892.06
2022-12-11T08:33:02.117Z,98893.53
2022-12-11T08:35:30.714Z,98879.84
2022-12-11T08:37:58.066Z,98881.44
2022-12-11T08:40:25.373Z,98891.31
2022-12-11T08:42:52.675Z,98893.84
2022-12-11T08:45:20.232Z,98905.00
2022-12-11T08:47:47.456Z,98905.16
2022-12-11T08:50:14.699Z,98900.03
2022-12-11T08:52:43.404Z,98911.78
2022-12-11T08:55:11.152Z,98907.31
2022-12-11T08:57:40.186Z,98917.53
2022-12-11T09:00:10.142Z,98912.97
2022-12-11T09:02:37.644Z,98905.28
2022-12-11T09:05:08.250Z,98904.81
2022-12-11T09:07:36.831Z,98916.81
2022-12-11T09:10:07.348Z,98908.53
2022-12-11T09:12:35.510Z,98901.97
2022-12-11T09:15:03.058Z,98905.19
2022-12-11T09:17:31.384Z,98912.34
2022-12-11T09:19:58.580Z,98921.84
2022-12-11T09:22:26.048Z,98918.03
2022-12-11T09:24:53.352Z,98922.78
2022-12-11T09:27:32.171Z,98926.13
2022-12-11T09:29:59.431Z,98928.97
2022-12-11T09:32:26.734Z,98932.69
2022-12-11T09:34:54.120Z,98948.50
2022-12-11T09:37:21.565Z,98946.00
2022-12-11T09:39:48.974Z,98951.75
2022-12-11T09:42:21.464Z,98957.75
2022-12-11T09:44:53.130Z,98953.25
2022-12-11T09:47:25.229Z,98942.69
2022-12-11T09:50:03.170Z,98934.81
2022-12-11T09:52:35.096Z,98953.16
2022-12-11T09:55:10.465Z,98960.28
2022-12-11T09:57:48.991Z,98966.00
2022-12-11T10:00:26.653Z,98963.81
2022-12-11T10:03:23.764Z,98959.97
2022-12-11T10:06:02.655Z,98953.69
2022-12-11T10:08:42.155Z,98944.91
2022-12-11T10:11:33.420Z,98950.59
2022-12-11T10:14:08.995Z,98949.16
2022-12-11T10:16:41.376Z,98944.44
2022-12-11T10:19:17.422Z,98942.31
2022-12-11T10:21:45.747Z,98940.94
2022-12-11T10:24:48.933Z,98948.53
2022-12-11T10:27:16.877Z,98930.56
2022-12-11T10:29:44.245Z,98970.81
2022-12-11T10:32:22.133Z,98973.63
2022-12-11T10:34:54.720Z,98972.34
2022-12-11T10:37:22.064Z,98967.41
2022-12-11T10:39:49.365Z,98967.03
2022-12-11T10:42:19.776Z,98965.41
2022-12-11T10:44:58.557Z,98962.38
2022-12-11T10:47:28.162Z,98960.78
2022-12-11T10:49:58.391Z,98962.69
2022-12-11T10:52:28.331Z,98954.16
2022-12-11T10:54:59.507Z,98928.19
2022-12-11T10:57:32.338Z,98942.47
2022-12-11T11:00:02.908Z,98935.00
2022-12-11T11:02:36.035Z,98920.63
2022-12-11T11:05:13.566Z,98914.69
2022-12-11T11:07:41.314Z,98913.06
2022-12-11T11:10:16.607Z,98913.06
2022-12-11T11:12:46.542Z,98902.22
2022-12-11T11:15:15.737Z,98922.47
2022-12-11T11:17:54.480Z,98920.84
2022-12-11T11:20:24.112Z,98919.22
2022-12-11T11:22:54.396Z,98900.53
2022-12-11T11:25:23.746Z,98894.41
2022-12-11T11:27:54.154Z,98907.03
2022-12-11T11:30:23.816Z,98910.69
2022-12-11T11:32:55.556Z,98919.03
2022-12-11T11:35:25.782Z,98920.94
2022-12-11T11:38:04.722Z,98917.72
2022-12-11T11:40:40.436Z,98887.75
2022-12-11T11:43:16.470Z,98918.16
2022-12-11T11:45:51.744Z,98903.75
2022-12-11T11:48:36.695Z,98927.09
2022-12-11T11:51:15.947Z,98925.38
2022-12-11T11:53:48.611Z,98911.69
2022-12-11T11:56:24.145Z,98923.69
2022-12-11T11:59:02.547Z,98937.84
2022-12-11T12:01:30.562Z,98931.91
2022-12-11T12:04:01.651Z,98935.53
2022-12-11T12:06:52.313Z,98934.72
2022-12-11T12:09:33.866Z,98934.44
2022-12-11T12:12:11.271Z,98937.63
2022-12-11T12:14:54.277Z,98918.00
2022-12-11T12:17:31.713Z,98914.69
2022-12-11T12:20:10.764Z,98950.81
2022-12-11T12:22:54.270Z,98932.41
2022-12-11T12:25:29.600Z,98948.00
2022-12-11T12:28:04.880Z,98950.38
2022-12-11T12:30:45.520Z,98926.13
2022-12-11T12:33:24.976Z,98943.06
2022-12-11T12:35:57.000Z,98938.75
2022-12-11T12:38:38.227Z,98948.88
2022-12-11T12:41:15.817Z,98942.25
2022-12-11T12:44:03.198Z,98944.84
2022-12-11T12:46:49.298Z,98944.84
2022-12-11T12:49:23.223Z,98938.22
2022-12-11T12:51:53.137Z,98932.41
2022-12-11T12:54:22.052Z,98929.38
2022-12-11T12:56:49.949Z,98931.59
2022-12-11T12:59:22.147Z,98919.09
2022-12-11T13:01:55.289Z,98916.53
2022-12-11T13:04:59.664Z,98947.66
2022-12-11T13:07:31.052Z,98935.22
2022-12-11T13:10:05.370Z,98929.88
2022-12-11T13:12:41.034Z,98926.56
2022-12-11T13:15:27.290Z,98913.28
2022-12-11T13:17:55.642Z,98909.16
2022-12-11T13:20:26.073Z,98904.84
2022-12-11T13:23:17.437Z,98899.91
2022-12-11T13:25:52.077Z,98906.44
2022-12-11T13:28:31.787Z,98895.81
2022-12-11T13:31:18.921Z,98904.94
2022-12-11T13:33:48.831Z,98887.34
2022-12-11T13:36:28.079Z,98889.25
2022-12-11T13:39:00.765Z,98864.00
2022-12-11T13:41:28.971Z,98884.94
2022-12-11T13:43:58.093Z,98877.28
2022-12-11T13:46:27.875Z,98876.69
2022-12-11T13:49:01.087Z,98856.47
2022-12-11T13:51:30.964Z,98874.25
2022-12-11T13:54:17.072Z,98856.56
2022-12-11T13:56:55.773Z,98876.69
2022-12-11T13:59:27.251Z,98862.00
2022-12-11T14:01:58.148Z,98866.72
2022-12-11T14:04:28.265Z,98857.59
2022-12-11T14:06:57.409Z,98835.66
2022-12-11T14:09:28.131Z,98845.63
2022-12-11T14:11:57.496Z,98839.78
2022-12-11T14:14:31.167Z,98833.25
2022-12-11T14:16:58.628Z,98841.50
2022-12-11T14:19:26.089Z,98846.31
2022-12-11T14:21:59.392Z,98839.69
2022-12-11T14:24:29.015Z,98852.25
2022-12-11T14:26:56.933Z,98848.13
2022-12-11T14:29:26.393Z,98861.50
2022-12-11T14:31:54.408Z,98864.03
2022-12-11T14:34:26.507Z,98868.25
2022-12-11T14:36:55.081Z,98860.69
2022-12-11T14:39:27.920Z,98843.19
2022-12-11T14:42:03.832Z,98846.72
2022-12-11T14:44:37.078Z,98842.09
2022-12-11T14:47:11.402Z,98865.22
2022-12-11T14:49:45.844Z,98863.81
2022-12-11T14:52:17.837Z,98857.09
2022-12-11T14:54:51.287Z,98833.84
2022-12-11T14:57:23.550Z,98798.47
2022-12-11T14:59:53.154Z,98820.69
2022-12-11T15:02:25.528Z,98832.94
2022-12-11T15:05:05.394Z,98826.31
2022-12-11T15:07:33.181Z,98822.19
2022-12-11T15:10:00.444Z,98812.16
2022-12-11T15:12:29.100Z,98805.50
2022-12-11T15:15:00.926Z,98785.41
2022-12-11T15:17:31.527Z,98778.78
2022-12-11T15:20:05.945Z,98756.16
2022-12-11T15:22:33.677Z,98743.59
2022-12-11T15:25:01.617Z,98748.41
2022-12-11T15:27:37.660Z,98736.47
2022-12-11T15:30:26.956Z,98731.22
2022-12-11T15:33:03.782Z,98729.50
2022-12-11T15:35:31.162Z,98743.88
2022-12-11T15:37:58.916Z,98744.81
2022-12-11T15:40:27.325Z,98744.59
2022-12-11T15:42:57.132Z,98759.88
2022-12-11T15:45:26.189Z,98764.69
2022-12-11T15:47:53.515Z,98750.50
2022-12-11T15:50:22.646Z,98743.88
2022-12-11T15:52:51.792Z,98747.50
2022-12-11T15:55:20.062Z,98728.53
2022-12-11T15:57:50.551Z,98708.19
2022-12-11T16:00:24.226Z,98725.66
2022-12-11T16:02:52.201Z,98694.31
2022-12-11T16:05:19.889Z,98707.47
2022-12-11T16:07:47.550Z,98713.22
2022-12-11T16:10:17.755Z,98724.97
2022-12-11T16:12:45.486Z,98711.50
2022-12-11T16:15:21.451Z,98707.06
2022-12-11T16:18:00.516Z,98701.16
2022-12-11T16:20:27.820Z,98700.34
2022-12-11T16:22:55.065Z,98692.91
2022-12-11T16:25:22.343Z,98687.56
2022-12-11T16:27:50.735Z,98685.25
2022-12-11T16:30:18.114Z,98677.63
2022-12-11T16:32:45.547Z,98693.28
2022-12-11T16:35:14.425Z,98682.22
2022-12-11T16:37:42.085Z,98689.66
2022-12-11T16:40:10.991Z,98681.22
2022-12-11T16:42:38.497Z,98667.75
2022-12-11T16:45:09.241Z,98657.69
2022-12-11T16:47:36.937Z,98669.13
2022-12-11T16:50:05.593Z,98663.19
2022-12-11T16:52:34.587Z,98651.41
2022-12-11T16:55:01.982Z,98664.09
2022-12-11T16:57:31.009Z,98657.13
2022-12-11T16:59:58.383Z,98650.06
2022-12-11T17:02:25.820Z,98627.44
2022-12-11T17:04:54.149Z,98622.19
2022-12-11T17:07:21.656Z,98603.81
2022-12-11T17:09:50.696Z,98602.22
2022-12-11T17:12:18.015Z,98584.28
2022-12-11T17:14:45.699Z,98579.25
2022-12-11T17:17:12.907Z,98569.09
2022-12-11T17:19:40.406Z,98563.03
2022-12-11T17:22:07.577Z,98560.59
2022-12-11T17:24:34.783Z,98549.41
2022-12-11T17:27:03.447Z,98546.69
2022-12-11T17:29:31.538Z,98559.38
2022-12-11T17:31:58.977Z,98545.78
2022-12-11T17:34:26.327Z,98543.28
2022-12-11T17:36:53.725Z,98560.66
2022-12-11T17:39:20.964Z,98554.25
2022-12-11T17:41:48.331Z,98561.34
2022-12-11T17:44:17.057Z,98547.59
2022-12-11T17:46:44.405Z,98554.91
2022-12-11T17:49:11.788Z,98549.53
2022-12-11T17:51:39.116Z,98559.22
2022-12-11T17:54:06.469Z,98546.56
2022-12-11T17:56:36.286Z,98556.19
2022-12-11T17:59:04.244Z,98542.09
2022-12-11T18:01:33.421Z,98527.47
2022-12-11T18:04:01.986Z,98524.41
2022-12-11T18:06:30.096Z,98521.97
2022-12-11T18:08:57.811Z,98518.56
2022-12-11T18:11:25.500Z,98535.72
2022-12-11T18:13:53.886Z,98542.09
2022-12-11T18:16:24.643Z,98530.09
2022-12-11T18:18:56.704Z,98534.47
2022-12-11T18:21:25.613Z,98541.56
2022-12-11T18:23:52.999Z,98508.06
2022-12-11T18:26:21.091Z,98549.13
2022-12-11T18:28:49.330Z,98534.78
2022-12-11T18:31:17.734Z,98549.69
2022-12-11T18:33:46.142Z,98549.69
2022-12-11T18:36:19.666Z,98551.28
2022-12-11T18:38:53.472Z,98553.69
2022-12-11T18:41:23.503Z,98546.25
2022-12-11T18:43:54.920Z,98537.56
2022-12-11T18:46:24.765Z,98547.84
2022-12-11T18:48:58.394Z,98544.66
2022-12-11T18:51:30.425Z,98525.69
2022-12-11T18:53:59.964Z,98520.19
2022-12-11T18:56:29.573Z,98517.66
2022-12-11T18:59:00.139Z,98501.66
2022-12-11T19:01:29.439Z,98492.75
2022-12-11T19:04:03.535Z,98483.13
2022-12-11T19:06:35.626Z,98480.88
2022-12-11T19:09:05.204Z,98451.69
2022-12-11T19:11:35.075Z,98484.97
2022-12-11T19:14:05.472Z,98475.97
2022-12-11T19:16:37.520Z,98473.78
2022-12-11T19:19:07.223Z,98469.22
2022-12-11T19:21:40.048Z,98487.16
2022-12-11T19:24:07.726Z,98471.97
2022-12-11T19:26:35.369Z,98472.88
2022-12-11T19:29:02.660Z,98475.28
2022-12-11T19:31:32.060Z,98487.84
2022-12-11T19:34:00.082Z,98483.63
2022-12-11T19:36:29.243Z,98476.28
2022-12-11T19:39:02.095Z,98470.94
2022-12-11T19:41:30.648Z,98475.63
2022-12-11T19:44:09.655Z,98481.00
2022-12-11T19:46:37.249Z,98468.06
2022-12-11T19:49:05.077Z,98469.44
2022-12-11T19:51:39.624Z,98422.44
2022-12-11T19:54:12.287Z,98453.31
2022-12-11T19:56:42.335Z,98463.25
2022-12-11T19:59:16.611Z,98462.13
2022-12-11T20:01:46.835Z,98471.25
2022-12-11T20:04:19.239Z,98474.00
2022-12-11T20:06:47.437Z,98463.59
2022-12-11T20:09:16.964Z,98446.09
2022-12-11T20:11:47.659Z,98458.22
2022-12-11T20:14:21.568Z,98427.94
2022-12-11T20:19:40.061Z,98436.03
2022-12-11T20:22:07.718Z,98434.78
2022-12-11T20:24:38.114Z,98428.28
2022-12-11T20:27:05.777Z,98431.13
2022-12-11T20:29:34.888Z,98411.34
2022-12-11T20:32:02.210Z,98438.09
2022-12-11T20:34:29.631Z,98407.00
2022-12-11T20:36:56.975Z,98400.91
2022-12-11T20:39:24.521Z,98419.09
2022-12-11T20:41:57.607Z,98398.97
2022-12-11T20:44:24.859Z,98380.88
2022-12-11T20:46:52.270Z,98388.88
2022-12-11T20:49:21.088Z,98374.13
2022-12-11T20:51:50.354Z,98364.63
2022-12-11T20:54:17.615Z,98364.50
2022-12-11T20:56:46.257Z,98386.50
2022-12-11T20:59:18.509Z,98391.84
2022-12-11T21:01:46.177Z,98365.66
2022-12-11T21:04:13.547Z,98369.91
2022-12-11T21:06:42.236Z,98339.50
2022-12-11T21:09:12.879Z,98355.97
2022-12-11T21:11:40.268Z,98358.81
2022-12-11T21:14:07.742Z,98370.16
2022-12-11T21:16:52.571Z,98334.19
2022-12-11T21:19:22.683Z,98367.59
2022-12-11T21:21:50.938Z,98359.91
2022-12-11T21:24:38.419Z,98326.72
2022-12-11T21:27:23.140Z,98312.44
2022-12-11T21:29:51.054Z,98333.09
2022-12-11T21:32:30.061Z,98333.91
2022-12-11T21:35:01.154Z,98317.88
2022-12-11T21:37:41.997Z,98318.69
2022-12-11T21:40:10.486Z,98297.75
2022-12-11T21:42:37.735Z,98294.31
2022-12-11T21:47:55.104Z,98291.44
2022-12-11T21:50:22.577Z,98294.88
2022-12-11T21:52:50.381Z,98274.56
2022-12-11T21:55:18.314Z,98276.88
2022-12-11T21:57:45.586Z,98269.06
2022-12-11T22:00:13.772Z,98277.53
2022-12-11T22:02:41.464Z,98253.53
2022-12-11T22:05:10.672Z,98247.75
2022-12-11T22:07:39.022Z,98252.56
2022-12-11T22:10:07.074Z,98240.88
2022-12-11T22:12:34.401Z,98237.19
2022-12-11T22:15:01.706Z,98228.72
2022-12-11T22:17:31.766Z,98225.94
2022-12-11T22:19:59.316Z,98222.88
2022-12-11T22:22:27.898Z,98202.88
2022-12-11T22:24:55.097Z,98213.63
2022-12-11T22:27:24.026Z,98199.31
2022-12-11T22:29:51.601Z,98199.50
2022-12-11T22:32:18.998Z,98208.53
2022-12-11T22:34:46.190Z,98208.00
2022-12-11T22:37:13.337Z,98196.84
2022-12-11T22:39:42.129Z,98188.50
2022-12-11T22:42:09.403Z,98180.03
2022-12-11T22:44:36.773Z,98172.47
2022-12-11T22:47:04.156Z,98160.78
2022-12-11T22:49:32.834Z,98167.31
2022-12-11T22:52:00.033Z,98147.00
2022-12-11T22:54:27.306Z,98152.03
2022-12-11T22:56:55.933Z,98150.31
2022-12-11T22:59:23.488Z,98141.03
2022-12-11T23:01:50.871Z,98120.19
2022-12-11T23:04:18.359Z,98115.63
2022-12-11T23:06:45.577Z,98130.75
2022-12-11T23:09:12.918Z,98123.97
2022-12-11T23:11:41.057Z,98106.06
2022-12-11T23:14:17.773Z,98101.03
2022-12-11T23:16:45.125Z,98082.47
2022-12-11T23:19:13.165Z,98097.84
2022-12-11T23:21:40.744Z,98080.59
2022-12-11T23:24:08.750Z,98107.94
2022-12-11T23:26:36.844Z,98105.00
2022-12-11T23:29:05.703Z,98088.28
2022-12-11T23:31:34.586Z,98072.63
2022-12-11T23:34:01.895Z,98081.91
2022-12-11T23:36:29.853Z,98075.16
2022-12-11T23:38:57.191Z,98066.78
2022-12-11T23:41:25.392Z,98079.16
2022-12-11T23:43:52.852Z,98064.84
2022-12-11T23:46:22.002Z,98023.41
2022-12-11T23:48:51.420Z,98070.81
2022-12-11T23:51:23.107Z,98035.88
2022-12-11T23:53:53.433Z,98057.28
2022-12-11T23:56:23.524Z,98043.47
2022-12-11T23:58:50.919Z,98041.88
